Time;durP1;ratioP1;P1;durP2;ratioP2;P2;SDS_P1;SDS_P2;PMS_P1;PMS_P2;Temp;Humidity;BMP_temperature;BMP_pressure;BME280_temperature;BME280_humidity;BME280_pressure;Samples;Min_cycle;Max_cycle;Signal;HPM_P1;HPM_P2
2023/04/13 00:00:49;;;;;;;1.33;1.00;;;;;;;6.03;80.14;96407.38;6115347;28;20280;-89
2023/04/13 00:03:51;;;;;;;1.57;1.00;;;;;;;4.38;80.08;96164.13;6115100;28;20761;-89
2023/04/13 00:06:54;;;;;;;1.67;1.03;;;;;;;6.02;79.87;96418.19;6114386;28;20827;-89
2023/04/13 00:09:56;;;;;;;1.43;1.17;;;;;;;6.17;80.06;96458.06;6122772;28;20241;-89
2023/04/13 00:13:00;;;;;;;2.97;1.07;;;;;;;4.42;79.64;96175.00;6130589;28;20584;-89
2023/04/13 00:16:02;;;;;;;2.97;1.20;;;;;;;6.11;78.54;96408.81;6130666;28;20238;-89
2023/04/13 00:19:05;;;;;;;2.33;1.23;;;;;;;6.73;78.90;96506.41;6115689;28;20247;-89
2023/04/13 00:22:08;;;;;;;3.97;1.27;;;;;;;6.82;78.13;96496.19;6129414;28;20246;-89
2023/04/13 00:25:13;;;;;;;2.33;1.10;;;;;;;4.78;77.88;96189.53;6131218;28;20251;-89
2023/04/13 00:28:15;;;;;;;1.13;1.03;;;;;;;6.19;77.69;96400.44;6117577;28;20257;-90
2023/04/13 00:31:17;;;;;;;1.80;1.00;;;;;;;6.63;77.70;96469.22;6131956;28;20260;-90
2023/04/13 00:34:20;;;;;;;1.37;0.90;;;;;;;6.25;77.87;96412.66;6148597;28;20242;-89
2023/04/13 00:37:22;;;;;;;2.13;1.07;;;;;;;6.36;77.85;96417.06;6116501;28;20257;-89
2023/04/13 00:40:24;;;;;;;2.53;0.73;;;;;;;6.95;78.13;96501.91;6131777;29;20320;-88
2023/04/13 00:43:27;;;;;;;3.13;1.10;;;;;;;5.18;77.48;96231.56;6110604;28;20731;-88
2023/04/13 00:46:30;;;;;;;2.20;0.70;;;;;;;7.03;77.93;96498.03;6130150;28;20270;-88
2023/04/13 00:49:33;;;;;;;1.63;0.90;;;;;;;6.64;78.48;96453.09;6119817;28;20241;-89
2023/04/13 00:52:39;;;;;;;1.50;1.10;;;;;;;6.35;78.57;96409.34;6146723;28;20765;-89
2023/04/13 00:55:42;;;;;;;1.60;1.17;;;;;;;6.70;78.67;96467.22;6131510;28;20313;-89
2023/04/13 00:58:44;;;;;;;5.87;1.03;;;;;;;5.15;79.21;96221.50;6099480;29;20666;-89
2023/04/13 01:01:49;;;;;;;7.30;1.10;;;;;;;6.08;79.20;96374.91;6129639;28;20281;-90
2023/04/13 01:04:54;;;;;;;4.27;1.23;;;;;;;6.72;79.41;96455.31;6099452;29;20428;-90
2023/04/13 01:08:07;;;;;;;3.23;0.90;;;;;;;6.98;80.18;96500.59;6115698;29;20244;-89
2023/04/13 01:11:24;;;;;;;3.13;1.00;;;;;;;6.61;80.54;96458.09;6114468;28;20238;-90
2023/04/13 01:14:39;;;;;;;1.07;0.97;;;;;;;6.59;80.59;96468.13;6160457;28;20257;-89
2023/04/13 01:17:56;;;;;;;1.33;1.03;;;;;;;6.15;80.75;96404.59;6132814;28;20211;-88
2023/04/13 01:21:00;;;;;;;3.37;0.87;;;;;;;6.18;81.27;96417.34;6123051;28;20211;-89
2023/04/13 01:24:20;;;;;;;3.10;0.97;;;;;;;6.06;81.40;96396.31;6130580;28;20285;-89
2023/04/13 01:27:45;;;;;;;1.70;1.00;;;;;;;6.92;81.43;96517.50;6137404;28;20318;-92
2023/04/13 01:30:51;;;;;;;2.00;1.03;;;;;;;6.92;81.62;96523.59;6115147;29;20237;-90
2023/04/13 01:33:53;;;;;;;1.87;1.00;;;;;;;6.26;83.30;96424.88;6122037;29;20309;-90
2023/04/13 01:36:56;;;;;;;2.83;1.43;;;;;;;6.55;83.95;96486.34;6115171;29;20237;-89
2023/04/13 01:39:58;;;;;;;1.60;1.00;;;;;;;5.52;84.12;96321.28;6137581;29;20237;-90
2023/04/13 01:43:12;;;;;;;2.10;1.43;;;;;;;6.00;84.99;96399.13;6120756;29;20378;-90
2023/04/13 01:46:26;;;;;;;1.40;1.20;;;;;;;6.20;84.88;96416.03;6118411;29;20709;-90
2023/04/13 01:49:36;;;;;;;1.53;1.10;;;;;;;6.42;84.61;96439.09;6110752;29;20245;-89
2023/04/13 01:53:10;;;;;;;1.43;1.00;;;;;;;6.22;85.07;96422.97;6122976;29;20237;-90
2023/04/13 01:56:18;;;;;;;2.80;1.30;;;;;;;6.56;85.29;96455.41;6119423;29;20247;-91
2023/04/13 01:59:22;;;;;;;1.90;1.20;;;;;;;4.88;85.40;96198.44;6110894;28;20229;-90
2023/04/13 02:02:25;;;;;;;1.10;1.00;;;;;;;5.85;86.30;96352.91;6113001;29;20228;-90
2023/04/13 02:05:28;;;;;;;1.33;1.17;;;;;;;7.50;84.61;96477.03;6117442;29;20237;-90
2023/04/13 02:08:33;;;;;;;1.37;1.10;;;;;;;7.86;83.92;96521.63;6118060;29;20232;-90
2023/04/13 02:11:37;;;;;;;1.87;1.20;;;;;;;6.90;84.38;96401.25;6115011;29;20251;-89
2023/04/13 02:14:41;;;;;;;1.57;1.03;;;;;;;6.23;84.39;96338.09;6117516;29;20425;-91
2023/04/13 02:17:43;;;;;;;1.10;1.00;;;;;;;6.70;85.18;96425.66;6118007;29;20245;-91
2023/04/13 02:20:45;;;;;;;1.67;1.20;;;;;;;5.51;85.61;96264.22;6117421;29;20283;-89
2023/04/13 02:23:48;;;;;;;1.60;1.30;;;;;;;6.72;86.51;96431.50;6101759;29;20329;-91
2023/04/13 02:26:50;;;;;;;2.43;1.43;;;;;;;6.83;86.49;96458.09;6116601;29;20473;-90
2023/04/13 02:29:52;;;;;;;1.53;1.23;;;;;;;6.31;86.66;96411.72;6115730;29;20318;-90
2023/04/13 02:32:54;;;;;;;2.27;1.33;;;;;;;6.65;86.71;96454.72;6106643;29;20238;-90
2023/04/13 02:35:58;;;;;;;1.33;1.13;;;;;;;6.31;86.94;96392.41;6112880;29;20233;-90
2023/04/13 02:39:01;;;;;;;4.87;3.90;;;;;;;7.26;87.57;96482.91;6125297;29;20287;-90
2023/04/13 02:42:06;;;;;;;5.00;4.40;;;;;;;7.01;87.03;96404.00;6101589;29;20740;-90
2023/04/13 02:45:12;;;;;;;9.43;5.10;;;;;;;7.99;86.16;96555.69;6101785;29;20382;-89
2023/04/13 02:48:15;;;;;;;5.83;5.17;;;;;;;8.62;82.44;96527.50;6110006;29;20245;-89
2023/04/13 02:51:17;;;;;;;3.40;3.10;;;;;;;7.46;82.39;96375.25;6123740;29;20210;-90
2023/04/13 02:54:20;;;;;;;4.17;3.37;;;;;;;7.99;83.55;96500.78;6108266;29;20239;-91
2023/04/13 02:57:24;;;;;;;4.47;4.07;;;;;;;6.59;84.45;96304.06;6106727;28;20245;-91
2023/04/13 03:00:28;;;;;;;5.37;3.97;;;;;;;7.53;84.80;96465.13;6124360;28;20560;-90
2023/04/13 03:03:34;;;;;;;7.43;5.00;;;;;;;7.79;85.36;96510.44;6123540;28;20725;-90
2023/04/13 03:06:36;;;;;;;9.93;7.27;;;;;;;6.23;85.72;96265.91;6117265;28;20230;-89
2023/04/13 03:09:40;;;;;;;7.47;5.97;;;;;;;7.80;85.31;96523.44;6117934;28;20229;-92
2023/04/13 03:12:43;;;;;;;9.37;7.20;;;;;;;6.35;84.14;96277.91;6131074;28;20738;-91
2023/04/13 03:15:46;;;;;;;8.57;7.67;;;;;;;8.24;84.82;96585.06;6116237;28;20237;-89
2023/04/13 03:18:51;;;;;;;8.83;7.97;;;;;;;8.27;84.10;96603.13;6116644;28;20234;-90
2023/04/13 03:21:53;;;;;;;10.80;7.63;;;;;;;6.47;82.04;96260.06;6116132;28;20222;-90
2023/04/13 03:24:58;;;;;;;7.60;6.53;;;;;;;7.44;83.11;96440.97;6128682;28;20831;-91
2023/04/13 03:28:07;;;;;;;7.20;6.50;;;;;;;7.66;83.71;96469.22;6117406;28;20708;-90
2023/04/13 03:31:15;;;;;;;7.83;6.17;;;;;;;8.06;82.70;96537.69;6114737;28;20233;-90
2023/04/13 03:34:17;;;;;;;7.13;5.03;;;;;;;8.08;82.77;96540.06;6127934;28;20236;-90
2023/04/13 03:37:20;;;;;;;4.30;3.87;;;;;;;7.23;79.63;96359.69;6116826;28;20650;-90
2023/04/13 03:40:23;;;;;;;4.13;3.73;;;;;;;8.06;81.80;96536.88;6115840;28;20379;-90
2023/04/13 03:43:26;;;;;;;5.63;2.97;;;;;;;7.95;82.41;96534.16;6116464;28;20317;-90
2023/04/13 03:46:37;;;;;;;2.30;2.03;;;;;;;7.19;82.63;96449.47;6130724;28;20752;-90
2023/04/13 03:49:51;;;;;;;3.67;1.90;;;;;;;7.96;81.66;96564.91;6125069;28;20294;-90
2023/04/13 03:52:53;;;;;;;2.50;1.77;;;;;;;6.98;81.27;96376.97;6131838;28;20453;-91
2023/04/13 03:55:56;;;;;;;1.60;1.50;;;;;;;7.67;82.29;96506.06;6114619;28;20379;-91
2023/04/13 03:58:58;;;;;;;1.50;1.37;;;;;;;6.26;81.52;96282.06;6114865;28;20218;-90
2023/04/13 04:02:01;;;;;;;1.40;1.30;;;;;;;8.26;82.72;96624.59;6098999;28;20585;-91
2023/04/13 04:05:06;;;;;;;1.20;1.10;;;;;;;6.44;82.67;96337.25;6116070;28;20232;-90
2023/04/13 04:08:09;;;;;;;1.60;1.30;;;;;;;5.05;83.18;96174.63;6106145;28;20230;-92
2023/04/13 04:11:11;;;;;;;2.53;1.07;;;;;;;8.00;84.12;96623.56;6106444;28;20241;-92
2023/04/13 04:14:14;;;;;;;1.73;1.13;;;;;;;6.59;84.46;96416.00;6101867;28;20595;-91
2023/04/13 04:17:25;;;;;;;1.37;0.90;;;;;;;7.97;84.79;96629.38;6106724;28;20234;-92
2023/04/13 04:20:27;;;;;;;1.97;1.10;;;;;;;7.54;84.13;96551.56;6099284;28;20252;-90
2023/04/13 04:23:29;;;;;;;1.03;0.90;;;;;;;6.54;84.04;96392.13;6104286;28;20578;-92
2023/04/13 04:26:37;;;;;;;0.87;0.87;;;;;;;7.19;83.98;96528.94;6111776;28;20776;-90
2023/04/13 04:29:39;;;;;;;0.90;0.90;;;;;;;6.91;84.53;96466.41;6115616;28;20226;-90
2023/04/13 04:32:53;;;;;;;0.80;0.80;;;;;;;6.61;82.55;96376.06;6115650;28;20230;-90
2023/04/13 04:36:00;;;;;;;0.70;0.70;;;;;;;5.85;82.90;96304.53;6113193;28;20324;-91
2023/04/13 04:39:06;;;;;;;1.20;0.80;;;;;;;6.44;83.83;96387.50;6112887;28;20256;-90
2023/04/13 04:42:17;;;;;;;1.40;1.30;;;;;;;6.48;83.44;96356.09;6108327;28;20532;-92
2023/04/13 04:45:21;;;;;;;2.03;1.00;;;;;;;6.57;83.15;96382.91;6127025;28;20252;-90
2023/04/13 04:48:25;;;;;;;1.23;1.13;;;;;;;5.78;83.29;96270.38;6107058;28;20696;-92
2023/04/13 04:51:34;;;;;;;1.20;1.10;;;;;;;6.06;83.84;96327.59;6108493;28;20235;-91
2023/04/13 04:54:38;;;;;;;1.50;1.17;;;;;;;6.93;84.12;96458.19;6113724;28;20232;-91
2023/04/13 04:57:42;;;;;;;1.13;1.00;;;;;;;7.17;84.71;96514.31;6104944;29;20289;-91
2023/04/13 05:00:46;;;;;;;1.50;1.40;;;;;;;7.90;85.21;96637.53;6126103;28;20921;-91
2023/04/13 05:03:50;;;;;;;1.30;1.17;;;;;;;7.86;85.60;96639.06;6113921;28;20317;-91
2023/04/13 05:06:59;;;;;;;1.23;1.10;;;;;;;4.76;84.00;96141.50;6121701;28;20773;-90
2023/04/13 05:10:05;;;;;;;0.97;0.93;;;;;;;6.79;83.78;96447.19;6133933;28;20221;-90
2023/04/13 05:13:11;;;;;;;1.30;1.17;;;;;;;7.76;83.24;96597.34;6131252;28;20316;-91
2023/04/13 05:16:17;;;;;;;1.73;1.10;;;;;;;6.07;83.82;96347.69;6128041;28;20285;-91
2023/04/13 05:19:19;;;;;;;0.90;0.90;;;;;;;7.03;83.02;96491.91;6116731;29;20238;-90
2023/04/13 05:22:24;;;;;;;1.30;1.00;;;;;;;7.83;83.15;96607.78;6119826;29;20462;-90
2023/04/13 05:25:34;;;;;;;1.43;0.90;;;;;;;6.02;81.28;96358.19;6134837;28;20246;-90
2023/04/13 05:28:41;;;;;;;1.53;0.80;;;;;;;6.42;80.63;96391.47;6112299;28;20238;-90
2023/04/13 05:31:43;;;;;;;1.87;1.07;;;;;;;5.63;82.70;96320.38;6110212;29;20234;-92
2023/04/13 05:34:46;;;;;;;1.97;0.90;;;;;;;7.97;82.41;96667.28;6130955;29;20240;-90
2023/04/13 05:37:58;;;;;;;1.17;1.07;;;;;;;6.98;83.13;96541.13;6103636;28;20265;-90
2023/04/13 05:41:06;;;;;;;0.90;0.87;;;;;;;7.92;82.27;96680.50;6122716;28;20262;-90
2023/04/13 05:44:09;;;;;;;0.77;0.77;;;;;;;7.84;82.60;96691.56;6130615;28;20388;-90
2023/04/13 05:47:11;;;;;;;0.90;0.87;;;;;;;5.47;83.47;96352.88;6127354;28;20234;-91
2023/04/13 05:50:16;;;;;;;2.73;0.97;;;;;;;7.63;82.86;96663.19;6126204;28;20226;-91
2023/04/13 05:53:18;;;;;;;1.07;1.00;;;;;;;6.03;83.04;96439.09;6129861;28;20229;-91
2023/04/13 05:56:24;;;;;;;1.20;1.10;;;;;;;7.41;83.12;96665.88;6109585;29;20250;-91
2023/04/13 05:59:27;;;;;;;2.17;0.90;;;;;;;6.44;83.38;96518.97;6124429;28;20224;-90
2023/04/13 06:02:33;;;;;;;0.87;0.87;;;;;;;7.18;82.66;96649.16;6091772;29;20240;-91
2023/04/13 06:05:37;;;;;;;0.80;0.70;;;;;;;7.14;83.33;96661.31;6113179;29;20253;-91
2023/04/13 06:08:39;;;;;;;0.70;0.70;;;;;;;6.66;82.67;96591.28;6135863;29;20219;-90
2023/04/13 06:11:42;;;;;;;0.50;0.50;;;;;;;5.92;80.81;96451.38;6143580;28;20329;-90
2023/04/13 06:14:44;;;;;;;0.93;0.80;;;;;;;6.85;80.55;96612.97;6134939;28;20221;-91
2023/04/13 06:17:46;;;;;;;0.60;0.50;;;;;;;7.51;81.68;96724.28;6146785;28;20226;-90
2023/04/13 06:20:48;;;;;;;0.77;0.50;;;;;;;6.08;81.94;96518.47;6127464;28;20218;-91
2023/04/13 06:23:50;;;;;;;0.60;0.60;;;;;;;4.64;80.87;96270.84;6106995;29;20247;-92
2023/04/13 06:27:03;;;;;;;0.50;0.50;;;;;;;5.90;80.99;96493.06;6095046;29;20237;-93
2023/04/13 06:30:08;;;;;;;0.83;0.70;;;;;;;7.45;81.44;96722.63;6186052;23;20228;-49
2023/04/13 06:33:10;;;;;;;0.40;0.40;;;;;;;7.38;82.13;96725.44;6192560;28;20248;-50
2023/04/13 06:36:12;;;;;;;0.80;0.50;;;;;;;7.28;83.26;96738.53;6191115;28;20774;-49
2023/04/13 06:39:15;;;;;;;0.83;0.60;;;;;;;7.24;82.85;96738.25;6184888;28;20239;-49
2023/04/13 06:42:25;;;;;;;0.60;0.50;;;;;;;7.20;83.49;96745.06;6183758;28;20601;-52
2023/04/13 06:45:58;;;;;;;0.60;0.60;;;;;;;7.23;83.79;96754.38;6194650;28;20250;-48
2023/04/13 06:49:04;;;;;;;0.50;0.50;;;;;;;7.20;84.94;96750.38;6183567;28;20305;-45
2023/04/13 06:52:07;;;;;;;0.43;0.43;;;;;;;7.21;84.53;96756.47;6183414;28;20649;-45
2023/04/13 06:55:09;;;;;;;1.07;0.50;;;;;;;7.22;84.63;96752.78;6198286;28;20222;-45
2023/04/13 06:58:13;;;;;;;0.43;0.43;;;;;;;7.24;85.34;96755.97;6163767;28;20320;-45
2023/04/13 07:01:16;;;;;;;0.50;0.40;;;;;;;7.22;86.12;96752.78;6175017;28;20233;-45
2023/04/13 07:04:20;;;;;;;0.60;0.40;;;;;;;7.05;86.24;96739.56;6196878;28;20271;-46
2023/04/13 07:07:22;;;;;;;3.70;0.60;;;;;;;7.23;86.15;96763.13;6193373;28;20279;-45
2023/04/13 07:10:26;;;;;;;0.20;0.20;;;;;;;7.27;86.04;96760.00;6188749;28;20602;-46
2023/04/13 07:13:31;;;;;;;0.20;0.20;;;;;;;7.35;86.60;96765.69;6183623;28;20708;-47
2023/04/13 07:16:34;;;;;;;0.10;0.10;;;;;;;7.31;86.04;96758.47;6182563;28;20323;-45
2023/04/13 07:19:37;;;;;;;0.73;0.30;;;;;;;7.44;86.92;96774.81;6193168;28;20724;-44
2023/04/13 07:22:39;;;;;;;0.20;0.20;;;;;;;7.42;86.02;96768.94;6181733;28;20250;-46
2023/04/13 07:25:43;;;;;;;1.60;0.33;;;;;;;7.44;86.18;96779.31;6191243;28;20246;-45
2023/04/13 07:28:52;;;;;;;0.37;0.30;;;;;;;7.49;85.09;96790.78;6192525;28;20247;-45
2023/04/13 07:31:59;;;;;;;0.30;0.30;;;;;;;7.49;85.09;96790.78;6181411;28;20231;-45
2023/04/13 07:35:03;;;;;;;0.30;0.30;;;;;;;7.50;84.76;96784.44;6175565;28;20236;-44
2023/04/13 07:38:09;;;;;;;0.30;0.30;;;;;;;7.54;85.29;96789.25;6183296;28;20243;-45
2023/04/13 07:41:11;;;;;;;0.20;0.20;;;;;;;7.42;84.83;96784.06;6192066;28;20311;-47
2023/04/13 07:44:13;;;;;;;0.40;0.40;;;;;;;7.47;84.70;96792.06;6189953;28;20531;-46
2023/04/13 07:47:16;;;;;;;0.20;0.20;;;;;;;7.50;85.69;96800.34;6174565;28;20724;-45
2023/04/13 07:50:20;;;;;;;1.03;0.30;;;;;;;7.45;85.70;96792.31;6182672;28;20264;-45
2023/04/13 07:53:24;;;;;;;0.20;0.20;;;;;;;7.45;85.82;96797.63;6183761;28;20583;-44
2023/04/13 07:56:26;;;;;;;0.13;0.13;;;;;;;7.47;82.11;96800.03;6187813;28;20578;-46
2023/04/13 07:59:29;;;;;;;0.37;0.37;;;;;;;7.37;83.14;96797.22;6194506;28;20255;-46
2023/04/13 08:02:32;;;;;;;0.27;0.27;;;;;;;7.27;84.08;96800.53;6190400;28;20236;-47
2023/04/13 08:05:35;;;;;;;0.30;0.30;;;;;;;7.21;84.59;96812.09;6178866;28;20234;-45
2023/04/13 08:08:38;;;;;;;0.20;0.20;;;;;;;7.16;84.34;96817.31;6193290;28;20224;-49
2023/04/13 08:11:41;;;;;;;1.83;0.50;;;;;;;7.15;84.13;96813.06;6177556;28;20696;-45
2023/04/13 08:14:44;;;;;;;0.27;0.27;;;;;;;6.98;81.79;96786.56;6189806;28;20624;-48
2023/04/13 08:17:46;;;;;;;0.23;0.23;;;;;;;7.13;83.96;96800.03;6191707;28;20225;-47
2023/04/13 08:20:49;;;;;;;0.20;0.20;;;;;;;7.14;84.00;96788.44;6191379;28;20239;-45
2023/04/13 08:23:53;;;;;;;0.30;0.30;;;;;;;7.27;82.66;96816.41;6178468;28;20233;-45
2023/04/13 08:26:57;;;;;;;1.37;0.40;;;;;;;7.33;83.62;96807.50;6188384;28;20238;-45
2023/04/13 08:30:01;;;;;;;0.73;0.30;;;;;;;7.40;83.72;96817.94;6180456;28;20236;-46
2023/04/13 08:33:17;;;;;;;0.93;0.30;;;;;;;7.53;83.70;96809.63;6190713;28;20270;-50
2023/04/13 08:36:19;;;;;;;0.40;0.30;;;;;;;7.61;83.08;96819.03;6192719;28;20230;-45
2023/04/13 08:39:27;;;;;;;0.20;0.20;;;;;;;7.71;82.44;96809.38;6179562;28;20237;-45
2023/04/13 08:42:30;;;;;;;0.70;0.30;;;;;;;7.92;80.34;96807.78;6201478;28;20217;-44
2023/04/13 08:45:33;;;;;;;0.20;0.20;;;;;;;8.06;80.01;96807.44;6186473;28;20243;-44
2023/04/13 08:48:41;;;;;;;0.57;0.40;;;;;;;8.18;82.17;96805.47;6186318;28;20591;-46
2023/04/13 08:52:03;;;;;;;0.17;0.17;;;;;;;8.22;79.71;96806.53;6182157;28;20589;-45
2023/04/13 08:55:06;;;;;;;0.87;0.40;;;;;;;8.10;80.08;96808.53;6187724;28;20275;-48
2023/04/13 08:58:12;;;;;;;0.20;0.20;;;;;;;8.11;82.20;96810.13;6189351;28;20252;-44
2023/04/13 09:01:15;;;;;;;0.20;0.20;;;;;;;7.85;79.59;96770.06;6198766;28;20241;-44
2023/04/13 09:04:22;;;;;;;0.40;0.30;;;;;;;7.95;80.37;96815.25;6189286;28;20250;-44
2023/04/13 09:07:33;;;;;;;0.80;0.50;;;;;;;7.95;81.09;96815.25;6182227;28;20885;-48
2023/04/13 09:10:41;;;;;;;0.30;0.30;;;;;;;7.78;77.63;96779.22;6187944;28;20248;-46
2023/04/13 09:13:49;;;;;;;0.30;0.30;;;;;;;7.65;79.04;96760.00;6181388;28;20583;-46
2023/04/13 09:16:51;;;;;;;0.30;0.30;;;;;;;8.02;79.74;96807.91;6166668;28;20235;-45
2023/04/13 09:20:12;;;;;;;0.30;0.30;;;;;;;8.02;79.40;96815.06;6194685;28;20453;-47
2023/04/13 09:23:15;;;;;;;0.20;0.20;;;;;;;7.92;77.87;96807.78;6202327;28;20237;-49
2023/04/13 09:26:17;;;;;;;0.30;0.30;;;;;;;7.88;78.65;96806.69;6199032;28;20720;-46
2023/04/13 09:29:21;;;;;;;0.60;0.50;;;;;;;7.96;79.25;96810.75;6200505;28;20319;-45
2023/04/13 09:32:25;;;;;;;0.33;0.33;;;;;;;8.14;79.39;96815.75;6197418;28;20237;-45
2023/04/13 09:35:30;;;;;;;2.77;0.30;;;;;;;8.26;79.13;96813.75;6198264;28;20282;-46
2023/04/13 09:38:32;;;;;;;0.87;0.40;;;;;;;8.26;78.05;96813.75;6202037;28;20244;-46
2023/04/13 09:41:36;;;;;;;0.20;0.20;;;;;;;8.21;78.56;96819.00;6197937;28;20244;-46
2023/04/13 09:44:39;;;;;;;0.30;0.30;;;;;;;8.13;79.83;96811.50;6165232;28;20757;-45
2023/04/13 09:47:42;;;;;;;0.30;0.27;;;;;;;8.11;79.43;96812.78;6184414;28;20232;-48
2023/04/13 09:50:44;;;;;;;0.40;0.40;;;;;;;8.01;78.76;96774.47;6206522;28;20228;-46
2023/04/13 09:53:47;;;;;;;0.37;0.30;;;;;;;8.27;80.16;96811.91;6195295;28;20770;-46
2023/04/13 09:56:55;;;;;;;0.30;0.30;;;;;;;8.42;80.15;96812.13;6194928;28;20700;-49
2023/04/13 09:59:59;;;;;;;0.30;0.30;;;;;;;8.37;77.53;96813.91;6194800;28;20233;-44
2023/04/13 10:03:13;;;;;;;1.67;0.40;;;;;;;8.27;77.17;96806.59;6193558;28;20911;-45
2023/04/13 10:06:15;;;;;;;0.30;0.30;;;;;;;8.28;79.09;96794.97;6197404;28;20767;-47
2023/04/13 10:09:17;;;;;;;0.30;0.30;;;;;;;8.26;76.42;96791.75;6194126;28;20250;-48
2023/04/13 10:12:19;;;;;;;0.37;0.37;;;;;;;8.09;77.87;96794.47;6193954;28;20315;-45
2023/04/13 10:15:49;;;;;;;0.50;0.40;;;;;;;7.93;76.46;96788.19;6195555;28;20232;-46
2023/04/13 10:19:15;;;;;;;0.40;0.33;;;;;;;8.02;78.49;96807.91;6195903;28;20232;-49
2023/04/13 10:22:21;;;;;;;0.20;0.20;;;;;;;7.93;78.68;96811.22;6197085;28;20233;-50
2023/04/13 10:25:23;;;;;;;0.30;0.30;;;;;;;7.90;80.10;96812.53;6193356;28;20826;-46
2023/04/13 10:28:45;;;;;;;0.40;0.40;;;;;;;7.92;79.88;96812.28;6194378;28;20323;-46
2023/04/13 10:31:50;;;;;;;0.30;0.30;;;;;;;7.79;78.37;96764.94;6192954;28;20298;-47
2023/04/13 10:34:54;;;;;;;0.90;0.40;;;;;;;8.02;79.25;96802.59;6194641;28;20228;-51
2023/04/13 10:37:56;;;;;;;0.30;0.30;;;;;;;8.04;78.50;96783.00;6196055;28;20841;-51
2023/04/13 10:40:59;;;;;;;0.40;0.40;;;;;;;7.93;77.43;96797.97;6192934;28;20230;-50
2023/04/13 10:44:03;;;;;;;0.30;0.30;;;;;;;7.93;79.44;96800.63;6194189;28;20235;-49
2023/04/13 10:47:07;;;;;;;1.53;0.30;;;;;;;8.06;75.44;96800.28;6195267;28;20240;-50
2023/04/13 10:50:36;;;;;;;0.40;0.40;;;;;;;7.94;78.67;96800.41;6194202;28;20745;-51
2023/04/13 10:53:38;;;;;;;0.57;0.57;;;;;;;7.90;77.93;96799.28;6196359;28;20232;-45
2023/04/13 10:56:40;;;;;;;0.97;0.53;;;;;;;7.92;76.71;96783.91;6193486;28;20245;-44
2023/04/13 10:59:48;;;;;;;0.67;0.60;;;;;;;7.92;77.94;96799.81;6194004;28;20716;-45
2023/04/13 11:03:01;;;;;;;1.50;0.40;;;;;;;7.90;75.64;96788.69;6196647;28;20240;-45
2023/04/13 11:06:05;;;;;;;0.60;0.43;;;;;;;7.40;76.48;96749.84;6193333;28;20230;-45
2023/04/13 11:09:10;;;;;;;0.60;0.60;;;;;;;7.57;79.38;96783.47;6194498;28;20666;-44
2023/04/13 11:12:16;;;;;;;0.53;0.53;;;;;;;7.57;79.71;96778.97;6185140;28;20228;-46
2023/04/13 11:15:23;;;;;;;1.80;0.73;;;;;;;7.71;80.04;96780.22;6196333;28;20562;-43
2023/04/13 11:18:26;;;;;;;0.40;0.40;;;;;;;7.80;78.78;96779.78;6192596;28;20255;-45
2023/04/13 11:21:30;;;;;;;1.07;0.47;;;;;;;7.85;77.14;96770.06;6178931;28;20235;-45
2023/04/13 11:24:32;;;;;;;0.40;0.40;;;;;;;7.84;76.83;96784.38;6184110;28;20236;-45
2023/04/13 11:27:36;;;;;;;0.60;0.33;;;;;;;7.87;76.31;96781.19;6192984;28;20240;-44
2023/04/13 11:30:38;;;;;;;2.20;0.50;;;;;;;7.66;78.36;96793.41;6195726;28;20230;-44
2023/04/13 11:33:43;;;;;;;0.40;0.40;;;;;;;7.60;79.80;96786.44;6192315;28;20247;-45
2023/04/13 11:36:48;;;;;;;0.47;0.47;;;;;;;7.77;77.10;96794.34;6192075;28;20322;-45
2023/04/13 11:39:50;;;;;;;0.70;0.70;;;;;;;7.63;78.12;96763.91;6183255;28;20262;-44
2023/04/13 11:42:55;;;;;;;0.53;0.47;;;;;;;7.91;77.11;96790.28;6194402;28;20245;-46
2023/04/13 11:45:58;;;;;;;0.50;0.50;;;;;;;7.89;78.46;96781.78;6192821;28;20232;-49
2023/04/13 11:49:00;;;;;;;0.50;0.50;;;;;;;7.96;75.79;96787.69;6192728;28;20585;-44
2023/04/13 11:52:03;;;;;;;0.40;0.40;;;;;;;7.95;78.10;96782.63;6193849;28;20588;-45
2023/04/13 11:55:08;;;;;;;0.60;0.40;;;;;;;7.90;76.32;96785.22;6192229;28;20594;-45
2023/04/13 11:58:25;;;;;;;0.50;0.50;;;;;;;7.90;75.36;96795.84;6181339;28;20611;-45
2023/04/13 12:01:27;;;;;;;0.40;0.40;;;;;;;7.76;76.05;96788.22;6192841;28;20228;-45
2023/04/13 12:04:39;;;;;;;0.40;0.40;;;;;;;7.83;76.85;96798.69;6192255;28;20240;-44
2023/04/13 12:07:42;;;;;;;1.17;0.43;;;;;;;7.65;78.46;96796.31;6193032;28;20731;-48
2023/04/13 12:10:45;;;;;;;0.50;0.30;;;;;;;7.56;77.85;96776.56;6192827;28;20228;-45
2023/04/13 12:13:50;;;;;;;1.27;0.57;;;;;;;7.61;77.48;96792.53;6190224;28;20241;-44
2023/04/13 12:17:11;;;;;;;0.40;0.40;;;;;;;7.62;77.99;96784.31;6192015;28;20781;-47
2023/04/13 12:20:19;;;;;;;0.50;0.40;;;;;;;7.71;77.67;96784.72;6192648;28;20239;-45
2023/04/13 12:23:23;;;;;;;0.37;0.37;;;;;;;7.61;79.77;96793.34;6191784;28;20230;-44
2023/04/13 12:26:37;;;;;;;0.40;0.40;;;;;;;7.52;79.11;96794.00;6195919;28;20604;-44
2023/04/13 12:30:03;;;;;;;2.00;0.40;;;;;;;7.16;79.51;96769.63;6194082;28;20236;-45
2023/04/13 12:33:05;;;;;;;0.37;0.30;;;;;;;7.40;76.33;96779.00;6192091;28;20235;-47
2023/04/13 12:36:10;;;;;;;0.50;0.50;;;;;;;7.25;78.57;96786.72;6191441;28;20706;-44
2023/04/13 12:39:12;;;;;;;0.40;0.30;;;;;;;7.37;76.19;96790.06;6183668;28;20231;-48
2023/04/13 12:42:14;;;;;;;0.63;0.40;;;;;;;7.19;76.57;96790.31;6191304;28;20267;-46
2023/04/13 12:45:16;;;;;;;1.23;0.70;;;;;;;7.04;76.17;96792.75;6192745;28;20289;-45
2023/04/13 12:48:19;;;;;;;0.90;0.53;;;;;;;7.04;77.33;96805.97;6173978;28;20223;-46
2023/04/13 12:51:21;;;;;;;0.47;0.40;;;;;;;7.06;77.40;96791.47;6192128;28;20243;-45
2023/04/13 12:54:23;;;;;;;0.50;0.40;;;;;;;7.23;76.44;96800.19;6192441;28;20323;-44
2023/04/13 12:57:27;;;;;;;1.03;0.37;;;;;;;7.31;76.45;96792.91;6195045;28;20230;-45
2023/04/13 13:00:29;;;;;;;1.57;0.50;;;;;;;7.31;78.82;96796.34;6192242;28;20372;-47
2023/04/13 13:03:31;;;;;;;0.30;0.30;;;;;;;7.32;79.63;96795.31;6191093;28;20716;-47
2023/04/13 13:06:33;;;;;;;0.40;0.40;;;;;;;7.35;79.38;96800.13;6190994;28;20241;-47
2023/04/13 13:09:36;;;;;;;0.47;0.47;;;;;;;7.46;79.51;96801.88;6194856;28;20269;-47
2023/04/13 13:12:38;;;;;;;1.53;0.40;;;;;;;7.54;76.67;96797.19;6190943;28;20711;-50
2023/04/13 13:15:40;;;;;;;0.50;0.50;;;;;;;7.60;78.72;96785.63;6189924;28;20243;-45
2023/04/13 13:18:42;;;;;;;0.30;0.30;;;;;;;7.75;76.23;96780.53;6190925;28;20236;-50
2023/04/13 13:22:03;;;;;;;0.50;0.43;;;;;;;7.69;75.52;96784.16;6197680;28;20262;-47
2023/04/13 13:25:07;;;;;;;1.43;0.47;;;;;;;7.44;76.23;96742.22;6190851;28;20239;-45
2023/04/13 13:28:10;;;;;;;0.43;0.43;;;;;;;7.73;75.73;96764.06;6192488;28;20721;-48
2023/04/13 13:31:15;;;;;;;0.40;0.40;;;;;;;7.87;74.13;96761.84;6198108;28;20251;-45
2023/04/13 13:34:18;;;;;;;0.60;0.57;;;;;;;7.70;74.12;96768.00;6196578;28;20240;-45
2023/04/13 13:37:20;;;;;;;0.50;0.40;;;;;;;7.63;75.96;96777.97;6200479;28;20244;-45
2023/04/13 13:40:22;;;;;;;1.07;0.73;;;;;;;7.02;76.43;96678.31;6195429;28;20236;-44
2023/04/13 13:43:24;;;;;;;2.33;0.60;;;;;;;7.69;75.34;96795.56;6196038;28;20236;-47
2023/04/13 13:46:26;;;;;;;0.70;0.60;;;;;;;7.45;75.87;96808.22;6195332;28;20245;-50
2023/04/13 13:49:30;;;;;;;1.20;0.60;;;;;;;7.42;76.13;96810.53;6195558;28;20327;-46
2023/04/13 13:52:55;;;;;;;0.90;0.70;;;;;;;7.27;76.46;96799.72;6197794;28;20230;-49
2023/04/13 13:56:10;;;;;;;0.60;0.53;;;;;;;7.21;77.40;96790.91;6187066;28;20235;-47
2023/04/13 13:59:12;;;;;;;1.30;0.90;;;;;;;7.14;77.79;96785.78;6194393;28;20261;-49
2023/04/13 14:02:14;;;;;;;0.73;0.60;;;;;;;7.14;78.64;96780.47;6194399;28;20242;-47
2023/04/13 14:05:16;;;;;;;0.50;0.50;;;;;;;7.24;77.46;96769.22;6193658;28;20264;-46
2023/04/13 14:08:18;;;;;;;0.60;0.60;;;;;;;7.18;79.01;96770.97;6194193;28;20330;-47
2023/04/13 14:11:21;;;;;;;1.03;0.70;;;;;;;7.10;79.20;96778.56;6195188;28;20862;-46
2023/04/13 14:14:23;;;;;;;0.97;0.50;;;;;;;7.12;79.21;96781.75;6185708;28;20574;-46
2023/04/13 14:17:25;;;;;;;0.73;0.70;;;;;;;7.14;78.16;96787.59;6198232;28;20227;-48
2023/04/13 14:20:27;;;;;;;0.53;0.53;;;;;;;7.05;79.20;96776.63;6195078;28;20233;-46
2023/04/13 14:23:29;;;;;;;0.93;0.63;;;;;;;7.09;79.02;96787.53;6193764;28;20229;-46
2023/04/13 14:26:35;;;;;;;0.90;0.80;;;;;;;7.21;78.94;96777.66;6194931;28;20259;-49
2023/04/13 14:29:37;;;;;;;1.00;0.80;;;;;;;7.32;78.74;96789.19;6191646;28;20258;-49
2023/04/13 14:32:41;;;;;;;0.90;0.77;;;;;;;7.53;77.23;96787.63;6195555;28;20727;-45
2023/04/13 14:35:46;;;;;;;1.40;0.60;;;;;;;7.46;78.15;96791.28;6194467;28;20250;-49
2023/04/13 14:38:51;;;;;;;1.10;0.73;;;;;;;7.46;77.26;96793.91;6194425;28;20225;-46
2023/04/13 14:41:53;;;;;;;1.20;0.63;;;;;;;7.39;77.14;96797.78;6197678;28;20708;-47